sensor_id;sensor_type;location;lat;lon;timestamp;temperature;humidity
7970;DHT22;4030;52.362;9.206;2023-04-16T00:00:05;12.10;87.70
7970;DHT22;4030;52.362;9.206;2023-04-16T00:02:32;12.10;87.80
7970;DHT22;4030;52.362;9.206;2023-04-16T00:04:58;12.10;87.80
7970;DHT22;4030;52.362;9.206;2023-04-16T00:09:50;12.10;87.70
7970;DHT22;4030;52.362;9.206;2023-04-16T00:19:34;12.10;88.30
7970;DHT22;4030;52.362;9.206;2023-04-16T00:46:24;12.10;88.80
7970;DHT22;4030;52.362;9.206;2023-04-16T00:48:52;12.00;88.60
7970;DHT22;4030;52.362;9.206;2023-04-16T00:51:19;12.00;88.40
7970;DHT22;4030;52.362;9.206;2023-04-16T00:53:46;12.00;88.30
7970;DHT22;4030;52.362;9.206;2023-04-16T00:56:12;12.10;88.30
7970;DHT22;4030;52.362;9.206;2023-04-16T00:58:38;12.00;88.10
7970;DHT22;4030;52.362;9.206;2023-04-16T01:01:04;12.00;88.20
7970;DHT22;4030;52.362;9.206;2023-04-16T01:03:43;12.00;88.30
7970;DHT22;4030;52.362;9.206;2023-04-16T01:06:11;12.00;88.30
7970;DHT22;4030;52.362;9.206;2023-04-16T01:11:03;12.00;88.20
7970;DHT22;4030;52.362;9.206;2023-04-16T01:13:29;12.00;88.10
7970;DHT22;4030;52.362;9.206;2023-04-16T01:15:55;11.90;88.00
7970;DHT22;4030;52.362;9.206;2023-04-16T01:18:22;12.00;88.10
7970;DHT22;4030;52.362;9.206;2023-04-16T01:20:49;11.90;88.00
7970;DHT22;4030;52.362;9.206;2023-04-16T01:23:15;11.90;88.00
7970;DHT22;4030;52.362;9.206;2023-04-16T01:25:43;11.90;88.00
7970;DHT22;4030;52.362;9.206;2023-04-16T01:28:09;11.90;88.00
7970;DHT22;4030;52.362;9.206;2023-04-16T01:30:35;11.90;88.00
7970;DHT22;4030;52.362;9.206;2023-04-16T01:33:00;11.90;87.90
7970;DHT22;4030;52.362;9.206;2023-04-16T01:37:52;11.90;87.90
7970;DHT22;4030;52.362;9.206;2023-04-16T01:42:44;11.80;87.70
7970;DHT22;4030;52.362;9.206;2023-04-16T01:50:03;11.80;87.70
7970;DHT22;4030;52.362;9.206;2023-04-16T01:52:29;11.80;87.70
7970;DHT22;4030;52.362;9.206;2023-04-16T01:54:55;11.80;87.80
7970;DHT22;4030;52.362;9.206;2023-04-16T01:57:21;11.70;87.60
7970;DHT22;4030;52.362;9.206;2023-04-16T01:59:47;11.80;87.60
7970;DHT22;4030;52.362;9.206;2023-04-16T02:02:14;11.80;87.50
7970;DHT22;4030;52.362;9.206;2023-04-16T02:04:42;11.80;87.50
7970;DHT22;4030;52.362;9.206;2023-04-16T02:07:09;11.70;87.40
7970;DHT22;4030;52.362;9.206;2023-04-16T02:09:36;11.80;87.70
7970;DHT22;4030;52.362;9.206;2023-04-16T02:12:04;11.70;87.60
7970;DHT22;4030;52.362;9.206;2023-04-16T02:14:32;11.80;87.70
7970;DHT22;4030;52.362;9.206;2023-04-16T02:16:59;11.70;87.70
7970;DHT22;4030;52.362;9.206;2023-04-16T02:19:25;11.70;87.60
7970;DHT22;4030;52.362;9.206;2023-04-16T02:21:51;11.70;87.60
7970;DHT22;4030;52.362;9.206;2023-04-16T02:26:43;11.70;87.60
7970;DHT22;4030;52.362;9.206;2023-04-16T02:29:09;11.60;87.40
7970;DHT22;4030;52.362;9.206;2023-04-16T02:34:02;11.60;87.40
7970;DHT22;4030;52.362;9.206;2023-04-16T02:36:28;11.60;87.40
7970;DHT22;4030;52.362;9.206;2023-04-16T02:41:20;11.60;87.40
7970;DHT22;4030;52.362;9.206;2023-04-16T02:48:38;11.70;87.90
7970;DHT22;4030;52.362;9.206;2023-04-16T02:51:04;11.60;87.70
7970;DHT22;4030;52.362;9.206;2023-04-16T02:58:24;11.60;87.70
7970;DHT22;4030;52.362;9.206;2023-04-16T03:00:51;11.60;87.50
7970;DHT22;4030;52.362;9.206;2023-04-16T03:03:17;11.60;87.60
7970;DHT22;4030;52.362;9.206;2023-04-16T03:05:43;11.50;87.50
7970;DHT22;4030;52.362;9.206;2023-04-16T03:08:09;11.60;87.80
7970;DHT22;4030;52.362;9.206;2023-04-16T03:10:35;11.60;87.70
7970;DHT22;4030;52.362;9.206;2023-04-16T03:13:01;11.50;87.50
7970;DHT22;4030;52.362;9.206;2023-04-16T03:17:53;11.70;87.80
7970;DHT22;4030;52.362;9.206;2023-04-16T03:20:19;11.50;88.00
7970;DHT22;4030;52.362;9.206;2023-04-16T03:22:45;11.60;88.00
7970;DHT22;4030;52.362;9.206;2023-04-16T03:25:12;11.60;87.80
7970;DHT22;4030;52.362;9.206;2023-04-16T03:27:38;11.60;87.80
7970;DHT22;4030;52.362;9.206;2023-04-16T03:30:05;11.50;87.60
7970;DHT22;4030;52.362;9.206;2023-04-16T03:32:32;11.60;87.60
7970;DHT22;4030;52.362;9.206;2023-04-16T03:34:58;11.60;87.90
7970;DHT22;4030;52.362;9.206;2023-04-16T03:39:49;11.50;87.60
7970;DHT22;4030;52.362;9.206;2023-04-16T03:44:41;11.50;87.50
7970;DHT22;4030;52.362;9.206;2023-04-16T04:26:06;11.40;87.50
7970;DHT22;4030;52.362;9.206;2023-04-16T04:28:32;11.40;87.60
7970;DHT22;4030;52.362;9.206;2023-04-16T04:30:58;11.40;87.80
7970;DHT22;4030;52.362;9.206;2023-04-16T04:33:27;11.40;87.70
7970;DHT22;4030;52.362;9.206;2023-04-16T04:35:53;11.30;87.50
7970;DHT22;4030;52.362;9.206;2023-04-16T04:38:19;11.40;87.60
7970;DHT22;4030;52.362;9.206;2023-04-16T04:40:47;11.40;87.70
7970;DHT22;4030;52.362;9.206;2023-04-16T04:45:39;11.50;87.80
7970;DHT22;4030;52.362;9.206;2023-04-16T04:48:05;11.40;87.70
7970;DHT22;4030;52.362;9.206;2023-04-16T04:50:31;11.40;87.70
7970;DHT22;4030;52.362;9.206;2023-04-16T05:05:08;11.40;87.80
7970;DHT22;4030;52.362;9.206;2023-04-16T05:09:59;11.40;87.70
7970;DHT22;4030;52.362;9.206;2023-04-16T05:24:36;11.40;87.90
7970;DHT22;4030;52.362;9.206;2023-04-16T05:27:02;11.40;87.90
7970;DHT22;4030;52.362;9.206;2023-04-16T05:53:50;11.50;89.30
7970;DHT22;4030;52.362;9.206;2023-04-16T05:56:16;11.40;89.20
7970;DHT22;4030;52.362;9.206;2023-04-16T05:58:41;11.40;89.10
7970;DHT22;4030;52.362;9.206;2023-04-16T06:01:07;11.30;88.80
7970;DHT22;4030;52.362;9.206;2023-04-16T06:35:12;11.80;88.40
7970;DHT22;4030;52.362;9.206;2023-04-16T06:42:30;11.80;88.10
7970;DHT22;4030;52.362;9.206;2023-04-16T07:11:43;12.40;87.80
7970;DHT22;4030;52.362;9.206;2023-04-16T07:19:02;12.70;87.70
7970;DHT22;4030;52.362;9.206;2023-04-16T07:21:28;12.80;87.60
7970;DHT22;4030;52.362;9.206;2023-04-16T07:23:54;12.90;87.60
7970;DHT22;4030;52.362;9.206;2023-04-16T07:26:19;12.90;87.60
7970;DHT22;4030;52.362;9.206;2023-04-16T07:28:45;12.90;87.60
7970;DHT22;4030;52.362;9.206;2023-04-16T07:36:03;12.90;87.60
7970;DHT22;4030;52.362;9.206;2023-04-16T07:48:13;13.10;87.70
7970;DHT22;4030;52.362;9.206;2023-04-16T07:55:33;13.10;87.60
7970;DHT22;4030;52.362;9.206;2023-04-16T07:57:59;13.10;87.50
7970;DHT22;4030;52.362;9.206;2023-04-16T08:00:25;13.20;87.50
7970;DHT22;4030;52.362;9.206;2023-04-16T08:02:51;13.10;87.40
7970;DHT22;4030;52.362;9.206;2023-04-16T08:05:16;13.10;87.30
7970;DHT22;4030;52.362;9.206;2023-04-16T08:07:42;13.10;87.10
7970;DHT22;4030;52.362;9.206;2023-04-16T08:19:53;13.10;86.80
7970;DHT22;4030;52.362;9.206;2023-04-16T08:22:19;13.20;86.90
7970;DHT22;4030;52.362;9.206;2023-04-16T08:24:45;13.10;86.80
7970;DHT22;4030;52.362;9.206;2023-04-16T08:44:22;13.30;86.40
7970;DHT22;4030;52.362;9.206;2023-04-16T08:46:53;13.30;86.30
7970;DHT22;4030;52.362;9.206;2023-04-16T08:49:26;13.30;86.20
7970;DHT22;4030;52.362;9.206;2023-04-16T08:51:53;13.20;86.10
7970;DHT22;4030;52.362;9.206;2023-04-16T08:54:45;13.30;86.30
7970;DHT22;4030;52.362;9.206;2023-04-16T08:57:18;13.30;86.50
7970;DHT22;4030;52.362;9.206;2023-04-16T08:59:47;13.30;86.50
7970;DHT22;4030;52.362;9.206;2023-04-16T09:02:13;13.20;86.30
7970;DHT22;4030;52.362;9.206;2023-04-16T09:04:40;13.20;86.40
7970;DHT22;4030;52.362;9.206;2023-04-16T09:07:07;13.10;86.40
7970;DHT22;4030;52.362;9.206;2023-04-16T09:09:34;13.20;86.50
7970;DHT22;4030;52.362;9.206;2023-04-16T09:12:00;13.20;86.50
7970;DHT22;4030;52.362;9.206;2023-04-16T09:16:52;13.20;86.60
7970;DHT22;4030;52.362;9.206;2023-04-16T09:19:22;13.20;86.60
7970;DHT22;4030;52.362;9.206;2023-04-16T09:21:48;13.20;86.50
7970;DHT22;4030;52.362;9.206;2023-04-16T09:24:15;13.20;86.40
7970;DHT22;4030;52.362;9.206;2023-04-16T09:26:41;13.30;86.50
7970;DHT22;4030;52.362;9.206;2023-04-16T09:34:07;13.20;86.30
7970;DHT22;4030;52.362;9.206;2023-04-16T09:36:33;13.30;86.30
7970;DHT22;4030;52.362;9.206;2023-04-16T09:39:00;13.30;86.30
7970;DHT22;4030;52.362;9.206;2023-04-16T09:41:31;13.40;86.50
7970;DHT22;4030;52.362;9.206;2023-04-16T09:44:01;13.30;86.40
7970;DHT22;4030;52.362;9.206;2023-04-16T09:46:30;13.40;86.40
7970;DHT22;4030;52.362;9.206;2023-04-16T09:49:07;13.40;86.40
7970;DHT22;4030;52.362;9.206;2023-04-16T09:51:39;13.40;86.50
7970;DHT22;4030;52.362;9.206;2023-04-16T09:54:05;13.40;86.50
7970;DHT22;4030;52.362;9.206;2023-04-16T09:56:31;13.40;86.40
7970;DHT22;4030;52.362;9.206;2023-04-16T09:58:59;13.40;86.50
7970;DHT22;4030;52.362;9.206;2023-04-16T10:03:53;13.40;87.60
7970;DHT22;4030;52.362;9.206;2023-04-16T10:06:21;13.40;88.10
7970;DHT22;4030;52.362;9.206;2023-04-16T10:08:49;13.40;88.40
7970;DHT22;4030;52.362;9.206;2023-04-16T10:11:16;13.40;88.40
7970;DHT22;4030;52.362;9.206;2023-04-16T10:13:43;13.40;88.10
7970;DHT22;4030;52.362;9.206;2023-04-16T10:16:09;13.40;88.00
7970;DHT22;4030;52.362;9.206;2023-04-16T10:18:36;13.40;87.80
7970;DHT22;4030;52.362;9.206;2023-04-16T10:21:05;13.40;87.70
7970;DHT22;4030;52.362;9.206;2023-04-16T10:23:32;13.40;87.70
7970;DHT22;4030;52.362;9.206;2023-04-16T10:25:59;13.30;87.40
7970;DHT22;4030;52.362;9.206;2023-04-16T10:30:54;13.30;87.30
7970;DHT22;4030;52.362;9.206;2023-04-16T10:33:24;13.40;87.30
7970;DHT22;4030;52.362;9.206;2023-04-16T10:36:06;13.40;87.30
7970;DHT22;4030;52.362;9.206;2023-04-16T10:38:44;13.40;87.20
7970;DHT22;4030;52.362;9.206;2023-04-16T10:41:10;13.30;87.00
7970;DHT22;4030;52.362;9.206;2023-04-16T10:43:43;13.40;87.10
7970;DHT22;4030;52.362;9.206;2023-04-16T10:46:23;13.30;86.90
7970;DHT22;4030;52.362;9.206;2023-04-16T10:48:54;13.40;87.10
7970;DHT22;4030;52.362;9.206;2023-04-16T10:51:27;13.30;87.00
7970;DHT22;4030;52.362;9.206;2023-04-16T10:56:43;13.40;87.10
7970;DHT22;4030;52.362;9.206;2023-04-16T10:59:10;13.30;87.10
7970;DHT22;4030;52.362;9.206;2023-04-16T11:01:40;13.30;87.10
7970;DHT22;4030;52.362;9.206;2023-04-16T11:07:04;13.30;86.90
7970;DHT22;4030;52.362;9.206;2023-04-16T11:10:02;13.30;86.90
7970;DHT22;4030;52.362;9.206;2023-04-16T11:12:39;13.30;86.90
7970;DHT22;4030;52.362;9.206;2023-04-16T11:15:14;13.30;87.10
7970;DHT22;4030;52.362;9.206;2023-04-16T11:17:43;13.40;87.20
7970;DHT22;4030;52.362;9.206;2023-04-16T11:20:24;13.40;87.20
7970;DHT22;4030;52.362;9.206;2023-04-16T11:22:52;13.40;87.20
7970;DHT22;4030;52.362;9.206;2023-04-16T11:25:24;13.40;87.10
7970;DHT22;4030;52.362;9.206;2023-04-16T11:27:52;13.50;87.20
7970;DHT22;4030;52.362;9.206;2023-04-16T11:30:33;13.50;87.20
7970;DHT22;4030;52.362;9.206;2023-04-16T11:33:07;13.50;87.20
7970;DHT22;4030;52.362;9.206;2023-04-16T11:35:34;13.50;87.20
7970;DHT22;4030;52.362;9.206;2023-04-16T11:40:29;13.60;87.20
7970;DHT22;4030;52.362;9.206;2023-04-16T11:43:13;13.60;87.20
7970;DHT22;4030;52.362;9.206;2023-04-16T11:45:56;13.60;87.10
7970;DHT22;4030;52.362;9.206;2023-04-16T11:48:25;13.60;87.10
7970;DHT22;4030;52.362;9.206;2023-04-16T11:51:11;13.70;87.00
7970;DHT22;4030;52.362;9.206;2023-04-16T11:53:45;13.70;86.90
7970;DHT22;4030;52.362;9.206;2023-04-16T11:56:14;13.60;86.80
7970;DHT22;4030;52.362;9.206;2023-04-16T11:58:41;13.70;86.80
7970;DHT22;4030;52.362;9.206;2023-04-16T12:01:08;13.80;86.90
7970;DHT22;4030;52.362;9.206;2023-04-16T12:03:41;13.90;86.90
7970;DHT22;4030;52.362;9.206;2023-04-16T12:06:10;13.90;86.90
7970;DHT22;4030;52.362;9.206;2023-04-16T12:11:02;13.90;86.90
7970;DHT22;4030;52.362;9.206;2023-04-16T12:15:55;13.90;86.90
7970;DHT22;4030;52.362;9.206;2023-04-16T12:18:25;13.90;87.00
7970;DHT22;4030;52.362;9.206;2023-04-16T12:20:53;13.90;86.90
7970;DHT22;4030;52.362;9.206;2023-04-16T12:23:27;13.90;86.80
7970;DHT22;4030;52.362;9.206;2023-04-16T12:25:55;13.90;86.70
7970;DHT22;4030;52.362;9.206;2023-04-16T12:28:33;14.00;86.70
7970;DHT22;4030;52.362;9.206;2023-04-16T12:31:01;13.90;86.50
7970;DHT22;4030;52.362;9.206;2023-04-16T12:33:27;14.10;86.70
7970;DHT22;4030;52.362;9.206;2023-04-16T12:35:53;14.10;86.60
7970;DHT22;4030;52.362;9.206;2023-04-16T12:38:19;14.20;86.60
7970;DHT22;4030;52.362;9.206;2023-04-16T12:45:38;14.20;86.80
7970;DHT22;4030;52.362;9.206;2023-04-16T12:48:04;14.30;86.90
7970;DHT22;4030;52.362;9.206;2023-04-16T12:52:57;14.40;86.90
7970;DHT22;4030;52.362;9.206;2023-04-16T12:55:23;14.40;86.80
7970;DHT22;4030;52.362;9.206;2023-04-16T13:00:18;14.40;86.60
7970;DHT22;4030;52.362;9.206;2023-04-16T13:02:44;14.60;86.70
7970;DHT22;4030;52.362;9.206;2023-04-16T13:10:04;14.70;86.50
7970;DHT22;4030;52.362;9.206;2023-04-16T13:12:30;14.70;86.40
7970;DHT22;4030;52.362;9.206;2023-04-16T13:14:56;14.70;86.40
7970;DHT22;4030;52.362;9.206;2023-04-16T13:19:48;14.80;86.30
7970;DHT22;4030;52.362;9.206;2023-04-16T13:24:40;14.80;86.20
7970;DHT22;4030;52.362;9.206;2023-04-16T13:27:06;14.90;86.20
7970;DHT22;4030;52.362;9.206;2023-04-16T13:29:33;14.90;86.20
7970;DHT22;4030;52.362;9.206;2023-04-16T13:32:01;14.90;86.00
7970;DHT22;4030;52.362;9.206;2023-04-16T13:34:27;14.90;86.10
7970;DHT22;4030;52.362;9.206;2023-04-16T13:41:45;15.00;86.00
7970;DHT22;4030;52.362;9.206;2023-04-16T13:44:13;15.10;86.00
7970;DHT22;4030;52.362;9.206;2023-04-16T13:49:07;15.10;86.10
7970;DHT22;4030;52.362;9.206;2023-04-16T13:51:33;15.10;86.00
7970;DHT22;4030;52.362;9.206;2023-04-16T13:53:59;15.20;86.10
7970;DHT22;4030;52.362;9.206;2023-04-16T13:56:24;15.20;86.10
7970;DHT22;4030;52.362;9.206;2023-04-16T13:58:50;15.10;86.00
7970;DHT22;4030;52.362;9.206;2023-04-16T14:01:16;15.20;86.00
7970;DHT22;4030;52.362;9.206;2023-04-16T14:03:42;15.20;86.00
7970;DHT22;4030;52.362;9.206;2023-04-16T14:06:07;15.20;85.90
7970;DHT22;4030;52.362;9.206;2023-04-16T14:10:59;15.20;85.90
7970;DHT22;4030;52.362;9.206;2023-04-16T14:15:53;15.20;85.80
7970;DHT22;4030;52.362;9.206;2023-04-16T14:18:19;15.20;85.80
7970;DHT22;4030;52.362;9.206;2023-04-16T14:20:45;15.20;85.90
7970;DHT22;4030;52.362;9.206;2023-04-16T14:23:11;15.20;86.00
7970;DHT22;4030;52.362;9.206;2023-04-16T14:25:37;15.10;86.00
7970;DHT22;4030;52.362;9.206;2023-04-16T14:28:02;15.10;86.00
7970;DHT22;4030;52.362;9.206;2023-04-16T14:30:28;15.10;86.00
7970;DHT22;4030;52.362;9.206;2023-04-16T14:45:05;15.10;85.90
7970;DHT22;4030;52.362;9.206;2023-04-16T14:47:32;15.10;85.80
7970;DHT22;4030;52.362;9.206;2023-04-16T14:52:25;15.20;85.70
7970;DHT22;4030;52.362;9.206;2023-04-16T14:54:52;15.30;85.80
7970;DHT22;4030;52.362;9.206;2023-04-16T14:59:45;15.30;85.70
7970;DHT22;4030;52.362;9.206;2023-04-16T15:02:12;15.30;85.60
7970;DHT22;4030;52.362;9.206;2023-04-16T15:04:38;15.30;85.60
7970;DHT22;4030;52.362;9.206;2023-04-16T15:07:04;15.30;85.60
7970;DHT22;4030;52.362;9.206;2023-04-16T15:09:30;15.30;85.50
7970;DHT22;4030;52.362;9.206;2023-04-16T15:11:56;15.40;85.60
7970;DHT22;4030;52.362;9.206;2023-04-16T15:14:22;15.30;85.40
7970;DHT22;4030;52.362;9.206;2023-04-16T15:16:48;15.40;85.40
7970;DHT22;4030;52.362;9.206;2023-04-16T15:19:14;15.40;85.30
7970;DHT22;4030;52.362;9.206;2023-04-16T15:21:39;15.40;85.30
7970;DHT22;4030;52.362;9.206;2023-04-16T15:24:05;15.50;85.20
7970;DHT22;4030;52.362;9.206;2023-04-16T15:28:57;15.40;85.00
7970;DHT22;4030;52.362;9.206;2023-04-16T15:31:23;15.40;85.00
7970;DHT22;4030;52.362;9.206;2023-04-16T15:33:49;15.40;85.00
7970;DHT22;4030;52.362;9.206;2023-04-16T15:36:14;15.40;85.00
7970;DHT22;4030;52.362;9.206;2023-04-16T15:38:41;15.40;85.00
7970;DHT22;4030;52.362;9.206;2023-04-16T15:41:08;15.40;85.00
7970;DHT22;4030;52.362;9.206;2023-04-16T15:43:34;15.40;84.80
7970;DHT22;4030;52.362;9.206;2023-04-16T15:48:26;15.50;84.80
7970;DHT22;4030;52.362;9.206;2023-04-16T15:50:52;15.40;84.70
7970;DHT22;4030;52.362;9.206;2023-04-16T15:53:18;15.40;84.80
7970;DHT22;4030;52.362;9.206;2023-04-16T15:55:44;15.30;84.80
7970;DHT22;4030;52.362;9.206;2023-04-16T16:00:37;15.30;84.80
7970;DHT22;4030;52.362;9.206;2023-04-16T16:03:03;15.40;84.80
7970;DHT22;4030;52.362;9.206;2023-04-16T16:07:56;15.40;84.60
7970;DHT22;4030;52.362;9.206;2023-04-16T16:10:22;15.40;84.60
7970;DHT22;4030;52.362;9.206;2023-04-16T16:12:48;15.40;84.50
7970;DHT22;4030;52.362;9.206;2023-04-16T16:15:13;15.40;84.50
7970;DHT22;4030;52.362;9.206;2023-04-16T16:17:39;15.40;84.50
7970;DHT22;4030;52.362;9.206;2023-04-16T16:20:05;15.40;84.70
7970;DHT22;4030;52.362;9.206;2023-04-16T16:22:35;15.40;85.10
7970;DHT22;4030;52.362;9.206;2023-04-16T16:25:03;15.30;85.30
7970;DHT22;4030;52.362;9.206;2023-04-16T16:27:29;15.20;85.40
7970;DHT22;4030;52.362;9.206;2023-04-16T16:29:55;15.10;85.40
7970;DHT22;4030;52.362;9.206;2023-04-16T16:32:21;15.20;85.60
7970;DHT22;4030;52.362;9.206;2023-04-16T16:34:46;15.10;85.60
7970;DHT22;4030;52.362;9.206;2023-04-16T16:37:12;15.00;85.50
7970;DHT22;4030;52.362;9.206;2023-04-16T16:39:38;15.00;85.60
7970;DHT22;4030;52.362;9.206;2023-04-16T16:42:04;14.90;85.60
7970;DHT22;4030;52.362;9.206;2023-04-16T16:44:30;14.70;85.50
7970;DHT22;4030;52.362;9.206;2023-04-16T16:46:55;14.80;85.60
7970;DHT22;4030;52.362;9.206;2023-04-16T16:51:47;14.70;85.70
7970;DHT22;4030;52.362;9.206;2023-04-16T16:56:39;14.60;85.80
7970;DHT22;4030;52.362;9.206;2023-04-16T16:59:05;14.60;85.90
7970;DHT22;4030;52.362;9.206;2023-04-16T17:01:32;14.50;85.90
7970;DHT22;4030;52.362;9.206;2023-04-16T17:03:58;14.50;85.90
7970;DHT22;4030;52.362;9.206;2023-04-16T17:06:23;14.50;86.00
7970;DHT22;4030;52.362;9.206;2023-04-16T17:08:49;14.40;86.00
7970;DHT22;4030;52.362;9.206;2023-04-16T17:11:15;14.40;86.10
7970;DHT22;4030;52.362;9.206;2023-04-16T17:13:41;14.40;86.20
7970;DHT22;4030;52.362;9.206;2023-04-16T17:16:07;14.40;86.30
7970;DHT22;4030;52.362;9.206;2023-04-16T17:21:00;14.30;86.40
7970;DHT22;4030;52.362;9.206;2023-04-16T17:23:26;14.20;86.40
7970;DHT22;4030;52.362;9.206;2023-04-16T17:25:51;14.30;86.50
7970;DHT22;4030;52.362;9.206;2023-04-16T17:28:17;14.30;86.50
7970;DHT22;4030;52.362;9.206;2023-04-16T17:30:43;14.20;86.40
7970;DHT22;4030;52.362;9.206;2023-04-16T17:33:09;14.20;86.50
7970;DHT22;4030;52.362;9.206;2023-04-16T17:35:35;14.20;86.50
7970;DHT22;4030;52.362;9.206;2023-04-16T17:40:26;14.10;86.50
7970;DHT22;4030;52.362;9.206;2023-04-16T17:45:18;14.10;86.80
7970;DHT22;4030;52.362;9.206;2023-04-16T17:50:11;14.00;86.80
7970;DHT22;4030;52.362;9.206;2023-04-16T17:52:36;14.10;86.80
7970;DHT22;4030;52.362;9.206;2023-04-16T17:55:05;14.00;86.80
7970;DHT22;4030;52.362;9.206;2023-04-16T17:57:32;14.00;86.80
7970;DHT22;4030;52.362;9.206;2023-04-16T17:59:57;14.00;86.80
7970;DHT22;4030;52.362;9.206;2023-04-16T18:04:49;13.90;86.70
7970;DHT22;4030;52.362;9.206;2023-04-16T18:14:34;13.90;86.80
7970;DHT22;4030;52.362;9.206;2023-04-16T18:17:01;13.80;86.60
7970;DHT22;4030;52.362;9.206;2023-04-16T18:19:27;13.80;86.70
7970;DHT22;4030;52.362;9.206;2023-04-16T18:21:53;13.80;86.60
7970;DHT22;4030;52.362;9.206;2023-04-16T18:24:20;13.80;86.60
7970;DHT22;4030;52.362;9.206;2023-04-16T18:26:45;13.80;86.70
7970;DHT22;4030;52.362;9.206;2023-04-16T18:29:11;13.70;86.60
7970;DHT22;4030;52.362;9.206;2023-04-16T18:31:37;13.70;86.70
7970;DHT22;4030;52.362;9.206;2023-04-16T18:34:03;13.70;86.80
7970;DHT22;4030;52.362;9.206;2023-04-16T18:36:28;13.70;86.80
7970;DHT22;4030;52.362;9.206;2023-04-16T18:38:55;13.70;86.90
7970;DHT22;4030;52.362;9.206;2023-04-16T18:41:21;13.70;86.90
7970;DHT22;4030;52.362;9.206;2023-04-16T18:43:47;13.60;86.70
7970;DHT22;4030;52.362;9.206;2023-04-16T18:46:13;13.60;86.80
7970;DHT22;4030;52.362;9.206;2023-04-16T18:48:39;13.60;86.90
7970;DHT22;4030;52.362;9.206;2023-04-16T18:51:06;13.60;86.90
7970;DHT22;4030;52.362;9.206;2023-04-16T18:53:32;13.60;86.90
7970;DHT22;4030;52.362;9.206;2023-04-16T18:55:58;13.50;86.80
7970;DHT22;4030;52.362;9.206;2023-04-16T18:58:24;13.50;86.70
7970;DHT22;4030;52.362;9.206;2023-04-16T19:00:52;13.50;86.70
7970;DHT22;4030;52.362;9.206;2023-04-16T19:03:18;13.50;86.70
7970;DHT22;4030;52.362;9.206;2023-04-16T19:05:45;13.50;86.80
7970;DHT22;4030;52.362;9.206;2023-04-16T19:08:10;13.50;86.70
7970;DHT22;4030;52.362;9.206;2023-04-16T19:10:36;13.40;86.60
7970;DHT22;4030;52.362;9.206;2023-04-16T19:13:01;13.40;86.70
7970;DHT22;4030;52.362;9.206;2023-04-16T19:15:27;13.50;86.80
7970;DHT22;4030;52.362;9.206;2023-04-16T19:17:53;13.40;86.70
7970;DHT22;4030;52.362;9.206;2023-04-16T19:20:18;13.40;86.70
7970;DHT22;4030;52.362;9.206;2023-04-16T19:22:44;13.40;86.80
7970;DHT22;4030;52.362;9.206;2023-04-16T19:25:10;13.30;86.70
7970;DHT22;4030;52.362;9.206;2023-04-16T19:27:36;13.40;86.80
7970;DHT22;4030;52.362;9.206;2023-04-16T19:30:02;13.30;86.70
7970;DHT22;4030;52.362;9.206;2023-04-16T19:32:28;13.30;86.80
7970;DHT22;4030;52.362;9.206;2023-04-16T19:34:54;13.30;86.80
7970;DHT22;4030;52.362;9.206;2023-04-16T19:49:31;13.20;86.70
7970;DHT22;4030;52.362;9.206;2023-04-16T19:51:57;13.20;86.60
7970;DHT22;4030;52.362;9.206;2023-04-16T19:59:18;13.20;86.60
7970;DHT22;4030;52.362;9.206;2023-04-16T20:01:45;13.20;86.70
7970;DHT22;4030;52.362;9.206;2023-04-16T20:09:03;13.10;86.50
7970;DHT22;4030;52.362;9.206;2023-04-16T20:16:24;13.10;86.50
7970;DHT22;4030;52.362;9.206;2023-04-16T20:18:50;13.10;86.50
7970;DHT22;4030;52.362;9.206;2023-04-16T20:21:18;13.10;86.60
7970;DHT22;4030;52.362;9.206;2023-04-16T20:26:14;13.00;86.40
7970;DHT22;4030;52.362;9.206;2023-04-16T20:28:43;13.00;86.30
7970;DHT22;4030;52.362;9.206;2023-04-16T20:31:10;13.00;86.30
7970;DHT22;4030;52.362;9.206;2023-04-16T20:33:36;13.00;86.40
7970;DHT22;4030;52.362;9.206;2023-04-16T20:36:04;13.00;86.50
7970;DHT22;4030;52.362;9.206;2023-04-16T20:38:30;13.00;86.40
7970;DHT22;4030;52.362;9.206;2023-04-16T20:40:57;13.00;86.30
7970;DHT22;4030;52.362;9.206;2023-04-16T20:43:35;12.90;86.30
7970;DHT22;4030;52.362;9.206;2023-04-16T20:46:09;12.90;86.30
7970;DHT22;4030;52.362;9.206;2023-04-16T20:48:36;12.90;86.40
7970;DHT22;4030;52.362;9.206;2023-04-16T20:51:04;13.00;86.50
7970;DHT22;4030;52.362;9.206;2023-04-16T20:53:31;12.90;86.40
7970;DHT22;4030;52.362;9.206;2023-04-16T20:55:58;12.90;86.40
7970;DHT22;4030;52.362;9.206;2023-04-16T20:58:26;12.90;86.40
7970;DHT22;4030;52.362;9.206;2023-04-16T21:00:53;12.90;86.50
7970;DHT22;4030;52.362;9.206;2023-04-16T21:03:19;12.90;86.60
7970;DHT22;4030;52.362;9.206;2023-04-16T21:05:50;12.80;86.40
7970;DHT22;4030;52.362;9.206;2023-04-16T21:08:17;13.00;86.70
7970;DHT22;4030;52.362;9.206;2023-04-16T21:10:44;12.80;86.50
7970;DHT22;4030;52.362;9.206;2023-04-16T21:13:10;12.80;86.60
7970;DHT22;4030;52.362;9.206;2023-04-16T21:15:40;12.70;86.60
7970;DHT22;4030;52.362;9.206;2023-04-16T21:18:07;12.80;86.60
7970;DHT22;4030;52.362;9.206;2023-04-16T21:20:34;12.90;86.80
7970;DHT22;4030;52.362;9.206;2023-04-16T21:23:00;12.80;86.60
7970;DHT22;4030;52.362;9.206;2023-04-16T21:25:26;12.70;86.50
7970;DHT22;4030;52.362;9.206;2023-04-16T21:27:52;12.80;86.50
7970;DHT22;4030;52.362;9.206;2023-04-16T21:30:18;12.70;86.60
7970;DHT22;4030;52.362;9.206;2023-04-16T21:35:10;12.70;86.50
7970;DHT22;4030;52.362;9.206;2023-04-16T21:37:36;12.70;86.50
7970;DHT22;4030;52.362;9.206;2023-04-16T21:40:02;12.70;86.40
7970;DHT22;4030;52.362;9.206;2023-04-16T21:42:33;12.70;86.50
7970;DHT22;4030;52.362;9.206;2023-04-16T21:45:07;12.70;86.50
7970;DHT22;4030;52.362;9.206;2023-04-16T21:47:34;12.80;86.80
7970;DHT22;4030;52.362;9.206;2023-04-16T21:50:00;12.60;86.60
7970;DHT22;4030;52.362;9.206;2023-04-16T22:02:10;12.70;86.60
7970;DHT22;4030;52.362;9.206;2023-04-16T22:04:35;12.60;86.60
7970;DHT22;4030;52.362;9.206;2023-04-16T22:07:06;12.70;86.80
7970;DHT22;4030;52.362;9.206;2023-04-16T22:09:36;12.60;86.60
7970;DHT22;4030;52.362;9.206;2023-04-16T22:12:03;12.60;86.50
7970;DHT22;4030;52.362;9.206;2023-04-16T22:14:34;12.60;86.60
7970;DHT22;4030;52.362;9.206;2023-04-16T22:16:59;12.70;86.70
7970;DHT22;4030;52.362;9.206;2023-04-16T22:19:26;12.60;86.60
7970;DHT22;4030;52.362;9.206;2023-04-16T22:24:18;12.60;86.60
7970;DHT22;4030;52.362;9.206;2023-04-16T22:29:11;12.60;86.60
7970;DHT22;4030;52.362;9.206;2023-04-16T22:38:55;12.60;86.50
7970;DHT22;4030;52.362;9.206;2023-04-16T22:51:07;12.50;86.50
7970;DHT22;4030;52.362;9.206;2023-04-16T22:55:59;12.50;86.50
7970;DHT22;4030;52.362;9.206;2023-04-16T23:03:18;12.40;86.40
7970;DHT22;4030;52.362;9.206;2023-04-16T23:10:36;12.40;86.40
7970;DHT22;4030;52.362;9.206;2023-04-16T23:25:12;12.30;86.50
7970;DHT22;4030;52.362;9.206;2023-04-16T23:30:05;12.30;86.50
7970;DHT22;4030;52.362;9.206;2023-04-16T23:37:25;12.40;86.60
7970;DHT22;4030;52.362;9.206;2023-04-16T23:39:50;12.30;86.50
7970;DHT22;4030;52.362;9.206;2023-04-16T23:52:01;12.20;86.50
7970;DHT22;4030;52.362;9.206;2023-04-16T23:54:27;12.30;86.60
7970;DHT22;4030;52.362;9.206;2023-04-16T23:56:53;12.20;86.50
